sensor_id;sensor_type;location;lat;lon;timestamp;P1;durP1;ratioP1;P2;durP2;ratioP2
39994;SDS011;25686;51.908;10.418;2024-01-30T00:00:01;11.07;;;6.60;;
39994;SDS011;25686;51.908;10.418;2024-01-30T00:02:03;12.38;;;7.50;;
39994;SDS011;25686;51.908;10.418;2024-01-30T00:04:04;13.32;;;7.05;;
39994;SDS011;25686;51.908;10.418;2024-01-30T00:06:05;12.48;;;6.95;;
39994;SDS011;25686;51.908;10.418;2024-01-30T00:08:06;12.88;;;7.10;;
39994;SDS011;25686;51.908;10.418;2024-01-30T00:10:07;13.55;;;7.05;;
39994;SDS011;25686;51.908;10.418;2024-01-30T00:12:08;11.98;;;6.85;;
39994;SDS011;25686;51.908;10.418;2024-01-30T00:14:09;12.18;;;7.00;;
39994;SDS011;25686;51.908;10.418;2024-01-30T00:16:19;9.73;;;7.03;;
39994;SDS011;25686;51.908;10.418;2024-01-30T00:18:21;11.77;;;6.97;;
39994;SDS011;25686;51.908;10.418;2024-01-30T00:20:22;13.98;;;6.97;;
39994;SDS011;25686;51.908;10.418;2024-01-30T00:22:23;12.38;;;6.88;;
39994;SDS011;25686;51.908;10.418;2024-01-30T00:24:23;13.18;;;7.15;;
39994;SDS011;25686;51.908;10.418;2024-01-30T00:26:24;14.45;;;7.15;;
39994;SDS011;25686;51.908;10.418;2024-01-30T00:28:25;11.95;;;6.65;;
39994;SDS011;25686;51.908;10.418;2024-01-30T00:30:26;10.70;;;6.85;;
39994;SDS011;25686;51.908;10.418;2024-01-30T00:32:27;13.40;;;7.07;;
39994;SDS011;25686;51.908;10.418;2024-01-30T00:34:28;14.02;;;6.80;;
39994;SDS011;25686;51.908;10.418;2024-01-30T00:36:29;12.15;;;6.88;;
39994;SDS011;25686;51.908;10.418;2024-01-30T00:38:30;9.93;;;6.30;;
39994;SDS011;25686;51.908;10.418;2024-01-30T00:40:31;14.38;;;6.85;;
39994;SDS011;25686;51.908;10.418;2024-01-30T00:42:32;16.00;;;7.88;;
39994;SDS011;25686;51.908;10.418;2024-01-30T00:44:34;12.25;;;7.50;;
39994;SDS011;25686;51.908;10.418;2024-01-30T00:46:38;14.27;;;7.63;;
39994;SDS011;25686;51.908;10.418;2024-01-30T00:48:39;13.68;;;7.22;;
39994;SDS011;25686;51.908;10.418;2024-01-30T00:50:39;14.15;;;7.03;;
39994;SDS011;25686;51.908;10.418;2024-01-30T00:52:40;12.32;;;7.28;;
39994;SDS011;25686;51.908;10.418;2024-01-30T00:54:44;14.98;;;7.68;;
39994;SDS011;25686;51.908;10.418;2024-01-30T00:56:45;13.82;;;7.07;;
39994;SDS011;25686;51.908;10.418;2024-01-30T00:58:46;17.23;;;6.93;;
39994;SDS011;25686;51.908;10.418;2024-01-30T01:00:47;12.13;;;7.32;;
39994;SDS011;25686;51.908;10.418;2024-01-30T01:02:48;11.07;;;6.97;;
39994;SDS011;25686;51.908;10.418;2024-01-30T01:04:49;14.43;;;6.93;;
39994;SDS011;25686;51.908;10.418;2024-01-30T01:06:50;12.85;;;7.38;;
39994;SDS011;25686;51.908;10.418;2024-01-30T01:08:51;13.27;;;7.32;;
39994;SDS011;25686;51.908;10.418;2024-01-30T01:10:52;10.65;;;6.75;;
39994;SDS011;25686;51.908;10.418;2024-01-30T01:12:53;13.40;;;6.80;;
39994;SDS011;25686;51.908;10.418;2024-01-30T01:14:54;12.52;;;7.32;;
39994;SDS011;25686;51.908;10.418;2024-01-30T01:16:55;12.88;;;6.70;;
39994;SDS011;25686;51.908;10.418;2024-01-30T01:18:56;13.00;;;6.32;;
39994;SDS011;25686;51.908;10.418;2024-01-30T01:20:57;10.05;;;6.45;;
39994;SDS011;25686;51.908;10.418;2024-01-30T01:22:58;14.15;;;6.57;;
39994;SDS011;25686;51.908;10.418;2024-01-30T01:24:59;12.32;;;7.13;;
39994;SDS011;25686;51.908;10.418;2024-01-30T01:27:00;13.55;;;7.15;;
39994;SDS011;25686;51.908;10.418;2024-01-30T01:29:01;12.20;;;7.57;;
39994;SDS011;25686;51.908;10.418;2024-01-30T01:31:09;11.68;;;7.03;;
39994;SDS011;25686;51.908;10.418;2024-01-30T01:33:10;15.43;;;7.40;;
39994;SDS011;25686;51.908;10.418;2024-01-30T01:35:14;11.88;;;7.32;;
39994;SDS011;25686;51.908;10.418;2024-01-30T01:37:14;14.95;;;7.07;;
39994;SDS011;25686;51.908;10.418;2024-01-30T01:39:16;12.27;;;6.72;;
39994;SDS011;25686;51.908;10.418;2024-01-30T01:41:17;12.77;;;6.65;;
39994;SDS011;25686;51.908;10.418;2024-01-30T01:43:18;11.60;;;7.20;;
39994;SDS011;25686;51.908;10.418;2024-01-30T01:45:19;9.88;;;6.32;;
39994;SDS011;25686;51.908;10.418;2024-01-30T01:47:20;14.02;;;7.13;;
39994;SDS011;25686;51.908;10.418;2024-01-30T01:49:22;17.33;;;6.80;;
39994;SDS011;25686;51.908;10.418;2024-01-30T01:51:23;10.93;;;6.68;;
39994;SDS011;25686;51.908;10.418;2024-01-30T01:53:25;12.13;;;6.60;;
39994;SDS011;25686;51.908;10.418;2024-01-30T01:55:27;11.45;;;6.78;;
39994;SDS011;25686;51.908;10.418;2024-01-30T01:57:29;12.68;;;6.60;;
39994;SDS011;25686;51.908;10.418;2024-01-30T01:59:30;11.20;;;6.30;;
39994;SDS011;25686;51.908;10.418;2024-01-30T02:01:38;9.20;;;6.45;;
39994;SDS011;25686;51.908;10.418;2024-01-30T02:03:41;12.68;;;6.80;;
39994;SDS011;25686;51.908;10.418;2024-01-30T02:05:42;11.98;;;6.72;;
39994;SDS011;25686;51.908;10.418;2024-01-30T02:07:43;13.00;;;6.65;;
39994;SDS011;25686;51.908;10.418;2024-01-30T02:09:44;11.10;;;6.55;;
39994;SDS011;25686;51.908;10.418;2024-01-30T02:11:45;12.82;;;7.03;;
39994;SDS011;25686;51.908;10.418;2024-01-30T02:13:46;13.02;;;6.47;;
39994;SDS011;25686;51.908;10.418;2024-01-30T02:15:50;12.65;;;6.82;;
39994;SDS011;25686;51.908;10.418;2024-01-30T02:17:51;13.10;;;6.93;;
39994;SDS011;25686;51.908;10.418;2024-01-30T02:19:52;10.95;;;6.55;;
39994;SDS011;25686;51.908;10.418;2024-01-30T02:21:53;11.35;;;6.28;;
39994;SDS011;25686;51.908;10.418;2024-01-30T02:23:55;14.75;;;6.80;;
39994;SDS011;25686;51.908;10.418;2024-01-30T02:25:56;8.88;;;6.50;;
39994;SDS011;25686;51.908;10.418;2024-01-30T02:27:57;11.45;;;6.65;;
39994;SDS011;25686;51.908;10.418;2024-01-30T02:29:58;13.57;;;6.93;;
39994;SDS011;25686;51.908;10.418;2024-01-30T02:31:59;12.45;;;7.10;;
39994;SDS011;25686;51.908;10.418;2024-01-30T02:33:59;10.52;;;6.35;;
39994;SDS011;25686;51.908;10.418;2024-01-30T02:36:00;9.40;;;6.70;;
39994;SDS011;25686;51.908;10.418;2024-01-30T02:38:01;13.85;;;7.70;;
39994;SDS011;25686;51.908;10.418;2024-01-30T02:40:02;15.80;;;6.72;;
39994;SDS011;25686;51.908;10.418;2024-01-30T02:42:03;12.82;;;7.68;;
39994;SDS011;25686;51.908;10.418;2024-01-30T02:44:05;11.82;;;7.20;;
39994;SDS011;25686;51.908;10.418;2024-01-30T02:46:06;13.98;;;7.15;;
39994;SDS011;25686;51.908;10.418;2024-01-30T02:48:07;12.75;;;6.78;;
39994;SDS011;25686;51.908;10.418;2024-01-30T02:50:08;13.05;;;6.30;;
39994;SDS011;25686;51.908;10.418;2024-01-30T02:52:09;15.13;;;6.22;;
39994;SDS011;25686;51.908;10.418;2024-01-30T02:54:10;12.32;;;6.55;;
39994;SDS011;25686;51.908;10.418;2024-01-30T02:56:11;16.70;;;6.15;;
39994;SDS011;25686;51.908;10.418;2024-01-30T02:58:13;11.05;;;6.60;;
39994;SDS011;25686;51.908;10.418;2024-01-30T03:00:14;12.27;;;6.40;;
39994;SDS011;25686;51.908;10.418;2024-01-30T03:02:15;11.15;;;6.65;;
39994;SDS011;25686;51.908;10.418;2024-01-30T03:04:16;15.57;;;6.65;;
39994;SDS011;25686;51.908;10.418;2024-01-30T03:06:18;12.05;;;6.32;;
39994;SDS011;25686;51.908;10.418;2024-01-30T03:08:20;13.85;;;6.57;;
39994;SDS011;25686;51.908;10.418;2024-01-30T03:10:21;8.82;;;6.20;;
39994;SDS011;25686;51.908;10.418;2024-01-30T03:12:22;10.32;;;6.03;;
39994;SDS011;25686;51.908;10.418;2024-01-30T03:14:23;15.23;;;6.05;;
39994;SDS011;25686;51.908;10.418;2024-01-30T03:16:24;14.80;;;6.63;;
39994;SDS011;25686;51.908;10.418;2024-01-30T03:18:25;10.73;;;6.25;;
39994;SDS011;25686;51.908;10.418;2024-01-30T03:20:26;16.70;;;6.38;;
39994;SDS011;25686;51.908;10.418;2024-01-30T03:22:26;14.02;;;7.10;;
39994;SDS011;25686;51.908;10.418;2024-01-30T03:24:27;9.20;;;5.88;;
39994;SDS011;25686;51.908;10.418;2024-01-30T03:26:28;10.75;;;6.35;;
39994;SDS011;25686;51.908;10.418;2024-01-30T03:28:29;11.57;;;6.25;;
39994;SDS011;25686;51.908;10.418;2024-01-30T03:30:30;13.27;;;6.45;;
39994;SDS011;25686;51.908;10.418;2024-01-30T03:32:32;17.40;;;6.20;;
39994;SDS011;25686;51.908;10.418;2024-01-30T03:34:33;13.73;;;6.38;;
39994;SDS011;25686;51.908;10.418;2024-01-30T03:36:33;12.73;;;6.63;;
39994;SDS011;25686;51.908;10.418;2024-01-30T03:38:35;13.07;;;5.93;;
39994;SDS011;25686;51.908;10.418;2024-01-30T03:40:36;13.20;;;6.35;;
39994;SDS011;25686;51.908;10.418;2024-01-30T03:42:37;10.82;;;6.03;;
39994;SDS011;25686;51.908;10.418;2024-01-30T03:44:38;11.30;;;6.07;;
39994;SDS011;25686;51.908;10.418;2024-01-30T03:46:38;14.13;;;6.65;;
39994;SDS011;25686;51.908;10.418;2024-01-30T03:48:39;10.60;;;5.82;;
39994;SDS011;25686;51.908;10.418;2024-01-30T03:50:40;13.80;;;6.30;;
39994;SDS011;25686;51.908;10.418;2024-01-30T03:52:41;12.63;;;5.70;;
39994;SDS011;25686;51.908;10.418;2024-01-30T03:54:42;13.45;;;5.80;;
39994;SDS011;25686;51.908;10.418;2024-01-30T03:56:43;12.95;;;6.30;;
39994;SDS011;25686;51.908;10.418;2024-01-30T03:58:44;11.95;;;5.82;;
39994;SDS011;25686;51.908;10.418;2024-01-30T04:00:45;11.57;;;5.95;;
39994;SDS011;25686;51.908;10.418;2024-01-30T04:02:46;11.55;;;6.40;;
39994;SDS011;25686;51.908;10.418;2024-01-30T04:04:47;12.68;;;5.95;;
39994;SDS011;25686;51.908;10.418;2024-01-30T04:06:48;10.57;;;6.38;;
39994;SDS011;25686;51.908;10.418;2024-01-30T04:08:49;10.15;;;6.05;;
39994;SDS011;25686;51.908;10.418;2024-01-30T04:10:50;11.75;;;5.93;;
39994;SDS011;25686;51.908;10.418;2024-01-30T04:12:51;13.63;;;6.50;;
39994;SDS011;25686;51.908;10.418;2024-01-30T04:14:52;12.50;;;6.07;;
39994;SDS011;25686;51.908;10.418;2024-01-30T04:16:53;10.70;;;6.32;;
39994;SDS011;25686;51.908;10.418;2024-01-30T04:18:54;12.45;;;5.72;;
39994;SDS011;25686;51.908;10.418;2024-01-30T04:20:55;12.25;;;6.15;;
39994;SDS011;25686;51.908;10.418;2024-01-30T04:22:56;9.55;;;5.90;;
39994;SDS011;25686;51.908;10.418;2024-01-30T04:24:57;11.68;;;6.68;;
39994;SDS011;25686;51.908;10.418;2024-01-30T04:26:58;10.95;;;6.32;;
39994;SDS011;25686;51.908;10.418;2024-01-30T04:28:59;11.23;;;5.97;;
39994;SDS011;25686;51.908;10.418;2024-01-30T04:31:00;11.48;;;5.85;;
39994;SDS011;25686;51.908;10.418;2024-01-30T04:33:01;10.95;;;5.70;;
39994;SDS011;25686;51.908;10.418;2024-01-30T04:35:02;9.93;;;5.97;;
39994;SDS011;25686;51.908;10.418;2024-01-30T04:37:03;11.18;;;6.20;;
39994;SDS011;25686;51.908;10.418;2024-01-30T04:39:04;9.35;;;5.90;;
39994;SDS011;25686;51.908;10.418;2024-01-30T04:41:05;12.93;;;5.95;;
39994;SDS011;25686;51.908;10.418;2024-01-30T04:43:06;10.35;;;6.45;;
39994;SDS011;25686;51.908;10.418;2024-01-30T04:45:07;11.45;;;6.38;;
39994;SDS011;25686;51.908;10.418;2024-01-30T04:47:08;9.85;;;5.90;;
39994;SDS011;25686;51.908;10.418;2024-01-30T04:49:11;11.73;;;6.05;;
39994;SDS011;25686;51.908;10.418;2024-01-30T04:51:12;12.50;;;6.38;;
39994;SDS011;25686;51.908;10.418;2024-01-30T04:53:13;11.80;;;6.30;;
39994;SDS011;25686;51.908;10.418;2024-01-30T04:55:14;13.73;;;6.38;;
39994;SDS011;25686;51.908;10.418;2024-01-30T04:57:15;11.52;;;6.45;;
39994;SDS011;25686;51.908;10.418;2024-01-30T04:59:16;8.43;;;5.95;;
39994;SDS011;25686;51.908;10.418;2024-01-30T05:01:17;12.57;;;5.85;;
39994;SDS011;25686;51.908;10.418;2024-01-30T05:03:19;11.68;;;6.13;;
39994;SDS011;25686;51.908;10.418;2024-01-30T05:05:20;12.52;;;5.82;;
39994;SDS011;25686;51.908;10.418;2024-01-30T05:07:21;12.27;;;6.35;;
39994;SDS011;25686;51.908;10.418;2024-01-30T05:09:22;9.73;;;5.90;;
39994;SDS011;25686;51.908;10.418;2024-01-30T05:11:23;11.93;;;6.30;;
39994;SDS011;25686;51.908;10.418;2024-01-30T05:13:24;11.95;;;6.10;;
39994;SDS011;25686;51.908;10.418;2024-01-30T05:15:25;13.85;;;6.70;;
39994;SDS011;25686;51.908;10.418;2024-01-30T05:17:26;9.13;;;5.85;;
39994;SDS011;25686;51.908;10.418;2024-01-30T05:19:27;12.85;;;6.40;;
39994;SDS011;25686;51.908;10.418;2024-01-30T05:21:28;14.10;;;6.30;;
39994;SDS011;25686;51.908;10.418;2024-01-30T05:23:29;15.88;;;6.10;;
39994;SDS011;25686;51.908;10.418;2024-01-30T05:25:30;8.48;;;5.93;;
39994;SDS011;25686;51.908;10.418;2024-01-30T05:27:31;12.48;;;5.93;;
39994;SDS011;25686;51.908;10.418;2024-01-30T05:29:32;12.20;;;5.90;;
39994;SDS011;25686;51.908;10.418;2024-01-30T05:31:33;11.77;;;5.85;;
39994;SDS011;25686;51.908;10.418;2024-01-30T05:33:34;12.77;;;6.10;;
39994;SDS011;25686;51.908;10.418;2024-01-30T05:35:35;11.90;;;6.35;;
39994;SDS011;25686;51.908;10.418;2024-01-30T05:37:36;13.23;;;6.32;;
39994;SDS011;25686;51.908;10.418;2024-01-30T05:39:37;14.05;;;6.85;;
39994;SDS011;25686;51.908;10.418;2024-01-30T05:41:38;10.38;;;5.88;;
39994;SDS011;25686;51.908;10.418;2024-01-30T05:43:39;13.40;;;6.45;;
39994;SDS011;25686;51.908;10.418;2024-01-30T05:45:39;10.77;;;6.13;;
39994;SDS011;25686;51.908;10.418;2024-01-30T05:47:41;12.27;;;6.13;;
39994;SDS011;25686;51.908;10.418;2024-01-30T05:49:41;11.73;;;6.13;;
39994;SDS011;25686;51.908;10.418;2024-01-30T05:51:42;12.43;;;6.78;;
39994;SDS011;25686;51.908;10.418;2024-01-30T05:53:43;12.25;;;6.63;;
39994;SDS011;25686;51.908;10.418;2024-01-30T05:55:44;14.85;;;6.53;;
39994;SDS011;25686;51.908;10.418;2024-01-30T05:57:45;12.07;;;6.63;;
39994;SDS011;25686;51.908;10.418;2024-01-30T05:59:46;11.23;;;6.18;;
39994;SDS011;25686;51.908;10.418;2024-01-30T06:01:48;10.63;;;6.40;;
39994;SDS011;25686;51.908;10.418;2024-01-30T06:03:49;13.00;;;6.60;;
39994;SDS011;25686;51.908;10.418;2024-01-30T06:05:50;12.00;;;6.40;;
39994;SDS011;25686;51.908;10.418;2024-01-30T06:07:51;10.80;;;6.20;;
39994;SDS011;25686;51.908;10.418;2024-01-30T06:09:52;11.43;;;6.35;;
39994;SDS011;25686;51.908;10.418;2024-01-30T06:11:53;9.73;;;5.80;;
39994;SDS011;25686;51.908;10.418;2024-01-30T06:13:54;10.63;;;6.10;;
39994;SDS011;25686;51.908;10.418;2024-01-30T06:15:55;9.57;;;5.93;;
39994;SDS011;25686;51.908;10.418;2024-01-30T06:17:55;11.75;;;6.07;;
39994;SDS011;25686;51.908;10.418;2024-01-30T06:19:56;9.60;;;5.72;;
39994;SDS011;25686;51.908;10.418;2024-01-30T06:21:57;12.38;;;6.63;;
39994;SDS011;25686;51.908;10.418;2024-01-30T06:23:58;15.10;;;6.57;;
39994;SDS011;25686;51.908;10.418;2024-01-30T06:26:00;11.35;;;6.10;;
39994;SDS011;25686;51.908;10.418;2024-01-30T06:28:01;12.27;;;6.28;;
39994;SDS011;25686;51.908;10.418;2024-01-30T06:30:01;10.65;;;5.70;;
39994;SDS011;25686;51.908;10.418;2024-01-30T06:32:03;12.32;;;6.15;;
39994;SDS011;25686;51.908;10.418;2024-01-30T06:34:04;10.32;;;6.10;;
39994;SDS011;25686;51.908;10.418;2024-01-30T06:36:05;11.07;;;5.90;;
39994;SDS011;25686;51.908;10.418;2024-01-30T06:38:06;10.70;;;5.88;;
39994;SDS011;25686;51.908;10.418;2024-01-30T06:40:07;8.13;;;5.53;;
39994;SDS011;25686;51.908;10.418;2024-01-30T06:42:08;9.85;;;5.47;;
39994;SDS011;25686;51.908;10.418;2024-01-30T06:44:09;12.52;;;5.60;;
39994;SDS011;25686;51.908;10.418;2024-01-30T06:46:10;12.05;;;6.18;;
39994;SDS011;25686;51.908;10.418;2024-01-30T06:48:11;13.18;;;6.03;;
39994;SDS011;25686;51.908;10.418;2024-01-30T06:50:12;11.00;;;6.20;;
39994;SDS011;25686;51.908;10.418;2024-01-30T06:52:13;10.15;;;6.10;;
39994;SDS011;25686;51.908;10.418;2024-01-30T06:54:14;11.60;;;5.65;;
39994;SDS011;25686;51.908;10.418;2024-01-30T06:56:15;11.88;;;6.85;;
39994;SDS011;25686;51.908;10.418;2024-01-30T06:58:20;10.65;;;5.82;;
39994;SDS011;25686;51.908;10.418;2024-01-30T07:00:21;10.98;;;5.85;;
39994;SDS011;25686;51.908;10.418;2024-01-30T07:02:23;12.85;;;5.47;;
39994;SDS011;25686;51.908;10.418;2024-01-30T07:04:24;10.98;;;6.20;;
39994;SDS011;25686;51.908;10.418;2024-01-30T07:06:25;13.45;;;6.60;;
39994;SDS011;25686;51.908;10.418;2024-01-30T07:08:26;9.10;;;5.55;;
39994;SDS011;25686;51.908;10.418;2024-01-30T07:10:27;10.35;;;6.05;;
39994;SDS011;25686;51.908;10.418;2024-01-30T07:12:28;12.13;;;6.20;;
39994;SDS011;25686;51.908;10.418;2024-01-30T07:14:29;10.35;;;5.70;;
39994;SDS011;25686;51.908;10.418;2024-01-30T07:16:30;11.57;;;5.90;;
39994;SDS011;25686;51.908;10.418;2024-01-30T07:18:31;10.15;;;5.65;;
39994;SDS011;25686;51.908;10.418;2024-01-30T07:20:32;8.23;;;5.78;;
39994;SDS011;25686;51.908;10.418;2024-01-30T07:22:33;9.30;;;5.85;;
39994;SDS011;25686;51.908;10.418;2024-01-30T07:24:34;9.98;;;5.80;;
39994;SDS011;25686;51.908;10.418;2024-01-30T07:26:35;10.98;;;5.90;;
39994;SDS011;25686;51.908;10.418;2024-01-30T07:28:35;11.75;;;5.60;;
39994;SDS011;25686;51.908;10.418;2024-01-30T07:30:37;11.38;;;5.97;;
39994;SDS011;25686;51.908;10.418;2024-01-30T07:32:38;10.07;;;5.47;;
39994;SDS011;25686;51.908;10.418;2024-01-30T07:34:38;10.65;;;5.63;;
39994;SDS011;25686;51.908;10.418;2024-01-30T07:36:39;10.38;;;6.20;;
39994;SDS011;25686;51.908;10.418;2024-01-30T07:38:40;13.45;;;6.30;;
39994;SDS011;25686;51.908;10.418;2024-01-30T07:40:41;12.30;;;6.25;;
39994;SDS011;25686;51.908;10.418;2024-01-30T07:42:42;10.48;;;5.40;;
39994;SDS011;25686;51.908;10.418;2024-01-30T07:44:43;9.70;;;5.57;;
39994;SDS011;25686;51.908;10.418;2024-01-30T07:46:44;11.00;;;6.18;;
39994;SDS011;25686;51.908;10.418;2024-01-30T07:48:45;11.50;;;6.15;;
39994;SDS011;25686;51.908;10.418;2024-01-30T07:50:46;8.32;;;5.93;;
39994;SDS011;25686;51.908;10.418;2024-01-30T07:52:47;11.20;;;5.88;;
39994;SDS011;25686;51.908;10.418;2024-01-30T07:54:51;10.38;;;6.38;;
39994;SDS011;25686;51.908;10.418;2024-01-30T07:56:52;11.45;;;5.65;;
39994;SDS011;25686;51.908;10.418;2024-01-30T07:58:53;10.25;;;5.95;;
39994;SDS011;25686;51.908;10.418;2024-01-30T08:00:54;9.55;;;5.90;;
39994;SDS011;25686;51.908;10.418;2024-01-30T08:02:58;13.23;;;6.18;;
39994;SDS011;25686;51.908;10.418;2024-01-30T08:04:59;11.50;;;5.97;;
39994;SDS011;25686;51.908;10.418;2024-01-30T08:07:00;10.85;;;5.97;;
39994;SDS011;25686;51.908;10.418;2024-01-30T08:09:01;10.30;;;5.35;;
39994;SDS011;25686;51.908;10.418;2024-01-30T08:11:02;9.77;;;5.50;;
39994;SDS011;25686;51.908;10.418;2024-01-30T08:13:03;9.40;;;5.65;;
39994;SDS011;25686;51.908;10.418;2024-01-30T08:15:04;9.77;;;5.90;;
39994;SDS011;25686;51.908;10.418;2024-01-30T08:17:05;10.63;;;5.55;;
39994;SDS011;25686;51.908;10.418;2024-01-30T08:19:07;11.38;;;6.45;;
39994;SDS011;25686;51.908;10.418;2024-01-30T08:21:08;8.77;;;5.53;;
39994;SDS011;25686;51.908;10.418;2024-01-30T08:23:09;11.98;;;5.88;;
39994;SDS011;25686;51.908;10.418;2024-01-30T08:25:10;9.80;;;6.03;;
39994;SDS011;25686;51.908;10.418;2024-01-30T08:27:11;9.80;;;5.47;;
39994;SDS011;25686;51.908;10.418;2024-01-30T08:29:12;11.32;;;5.72;;
39994;SDS011;25686;51.908;10.418;2024-01-30T08:31:13;10.57;;;5.75;;
39994;SDS011;25686;51.908;10.418;2024-01-30T08:33:14;11.27;;;5.43;;
39994;SDS011;25686;51.908;10.418;2024-01-30T08:35:15;10.27;;;5.32;;
39994;SDS011;25686;51.908;10.418;2024-01-30T08:37:16;10.50;;;5.30;;
39994;SDS011;25686;51.908;10.418;2024-01-30T08:39:17;10.98;;;5.80;;
39994;SDS011;25686;51.908;10.418;2024-01-30T08:41:18;9.98;;;5.70;;
39994;SDS011;25686;51.908;10.418;2024-01-30T08:43:19;10.90;;;5.65;;
39994;SDS011;25686;51.908;10.418;2024-01-30T08:45:20;9.35;;;5.15;;
39994;SDS011;25686;51.908;10.418;2024-01-30T08:47:21;9.13;;;4.95;;
39994;SDS011;25686;51.908;10.418;2024-01-30T08:49:22;9.07;;;5.78;;
39994;SDS011;25686;51.908;10.418;2024-01-30T08:51:23;8.05;;;5.68;;
39994;SDS011;25686;51.908;10.418;2024-01-30T08:53:24;11.45;;;5.47;;
39994;SDS011;25686;51.908;10.418;2024-01-30T08:55:25;12.48;;;5.93;;
39994;SDS011;25686;51.908;10.418;2024-01-30T08:57:26;9.85;;;6.07;;
39994;SDS011;25686;51.908;10.418;2024-01-30T08:59:28;11.15;;;5.45;;
39994;SDS011;25686;51.908;10.418;2024-01-30T09:01:29;8.43;;;5.40;;
39994;SDS011;25686;51.908;10.418;2024-01-30T09:03:30;9.32;;;5.72;;
39994;SDS011;25686;51.908;10.418;2024-01-30T09:05:31;8.85;;;5.20;;
39994;SDS011;25686;51.908;10.418;2024-01-30T09:07:32;11.02;;;5.53;;
39994;SDS011;25686;51.908;10.418;2024-01-30T09:09:33;13.52;;;5.97;;
39994;SDS011;25686;51.908;10.418;2024-01-30T09:11:35;10.43;;;5.40;;
39994;SDS011;25686;51.908;10.418;2024-01-30T09:13:36;11.57;;;5.28;;
39994;SDS011;25686;51.908;10.418;2024-01-30T09:15:37;9.95;;;5.13;;
39994;SDS011;25686;51.908;10.418;2024-01-30T09:17:38;11.68;;;5.25;;
39994;SDS011;25686;51.908;10.418;2024-01-30T09:19:40;13.68;;;5.22;;
39994;SDS011;25686;51.908;10.418;2024-01-30T09:21:41;8.95;;;5.10;;
39994;SDS011;25686;51.908;10.418;2024-01-30T09:23:42;10.00;;;5.38;;
39994;SDS011;25686;51.908;10.418;2024-01-30T09:25:43;7.85;;;4.78;;
39994;SDS011;25686;51.908;10.418;2024-01-30T09:27:44;8.32;;;4.95;;
39994;SDS011;25686;51.908;10.418;2024-01-30T09:29:44;9.80;;;5.10;;
39994;SDS011;25686;51.908;10.418;2024-01-30T09:31:45;11.15;;;4.78;;
39994;SDS011;25686;51.908;10.418;2024-01-30T09:33:46;8.80;;;4.95;;
39994;SDS011;25686;51.908;10.418;2024-01-30T09:35:49;11.00;;;4.97;;
39994;SDS011;25686;51.908;10.418;2024-01-30T09:37:51;8.38;;;5.03;;
39994;SDS011;25686;51.908;10.418;2024-01-30T09:39:52;9.88;;;4.65;;
39994;SDS011;25686;51.908;10.418;2024-01-30T09:44:03;7.78;;;4.65;;
39994;SDS011;25686;51.908;10.418;2024-01-30T09:46:06;9.43;;;5.22;;
39994;SDS011;25686;51.908;10.418;2024-01-30T09:48:08;9.93;;;4.78;;
39994;SDS011;25686;51.908;10.418;2024-01-30T09:50:10;8.75;;;4.43;;
39994;SDS011;25686;51.908;10.418;2024-01-30T09:52:11;9.15;;;4.75;;
39994;SDS011;25686;51.908;10.418;2024-01-30T09:54:13;10.10;;;4.90;;
39994;SDS011;25686;51.908;10.418;2024-01-30T09:56:15;8.07;;;4.80;;
39994;SDS011;25686;51.908;10.418;2024-01-30T09:58:17;10.27;;;4.45;;
39994;SDS011;25686;51.908;10.418;2024-01-30T10:00:18;10.25;;;4.45;;
39994;SDS011;25686;51.908;10.418;2024-01-30T10:02:19;7.68;;;4.43;;
39994;SDS011;25686;51.908;10.418;2024-01-30T10:04:20;7.60;;;4.38;;
39994;SDS011;25686;51.908;10.418;2024-01-30T10:06:21;6.50;;;4.18;;
39994;SDS011;25686;51.908;10.418;2024-01-30T10:08:23;6.80;;;4.35;;
39994;SDS011;25686;51.908;10.418;2024-01-30T10:10:24;8.35;;;4.43;;
39994;SDS011;25686;51.908;10.418;2024-01-30T10:12:25;7.25;;;4.53;;
39994;SDS011;25686;51.908;10.418;2024-01-30T10:14:27;8.38;;;4.97;;
39994;SDS011;25686;51.908;10.418;2024-01-30T10:16:28;7.85;;;4.57;;
39994;SDS011;25686;51.908;10.418;2024-01-30T10:18:29;9.00;;;4.95;;
39994;SDS011;25686;51.908;10.418;2024-01-30T10:20:29;9.98;;;5.22;;
39994;SDS011;25686;51.908;10.418;2024-01-30T10:22:30;10.55;;;5.25;;
39994;SDS011;25686;51.908;10.418;2024-01-30T10:24:33;8.48;;;5.20;;
39994;SDS011;25686;51.908;10.418;2024-01-30T10:26:34;9.23;;;4.88;;
39994;SDS011;25686;51.908;10.418;2024-01-30T10:28:37;8.38;;;4.70;;
39994;SDS011;25686;51.908;10.418;2024-01-30T10:30:38;7.32;;;5.03;;
39994;SDS011;25686;51.908;10.418;2024-01-30T10:32:39;7.03;;;4.70;;
39994;SDS011;25686;51.908;10.418;2024-01-30T10:34:40;8.73;;;4.90;;
39994;SDS011;25686;51.908;10.418;2024-01-30T10:36:41;9.75;;;5.18;;
39994;SDS011;25686;51.908;10.418;2024-01-30T10:38:43;8.30;;;4.47;;
39994;SDS011;25686;51.908;10.418;2024-01-30T10:40:46;7.68;;;4.80;;
39994;SDS011;25686;51.908;10.418;2024-01-30T10:42:48;10.93;;;4.60;;
39994;SDS011;25686;51.908;10.418;2024-01-30T10:46:54;7.63;;;4.13;;
39994;SDS011;25686;51.908;10.418;2024-01-30T10:48:57;8.10;;;4.50;;
39994;SDS011;25686;51.908;10.418;2024-01-30T10:50:58;9.98;;;4.60;;
39994;SDS011;25686;51.908;10.418;2024-01-30T10:53:00;7.25;;;4.85;;
39994;SDS011;25686;51.908;10.418;2024-01-30T10:55:02;9.18;;;4.60;;
39994;SDS011;25686;51.908;10.418;2024-01-30T10:57:06;6.75;;;4.00;;
39994;SDS011;25686;51.908;10.418;2024-01-30T10:59:07;8.07;;;4.47;;
39994;SDS011;25686;51.908;10.418;2024-01-30T11:01:09;8.07;;;3.88;;
39994;SDS011;25686;51.908;10.418;2024-01-30T11:03:10;8.18;;;4.47;;
39994;SDS011;25686;51.908;10.418;2024-01-30T11:05:12;5.30;;;4.05;;
39994;SDS011;25686;51.908;10.418;2024-01-30T11:09:17;7.57;;;4.30;;
39994;SDS011;25686;51.908;10.418;2024-01-30T11:11:18;11.90;;;5.03;;
39994;SDS011;25686;51.908;10.418;2024-01-30T11:13:19;10.75;;;4.78;;
39994;SDS011;25686;51.908;10.418;2024-01-30T11:15:20;8.70;;;4.78;;
39994;SDS011;25686;51.908;10.418;2024-01-30T11:17:21;11.05;;;6.25;;
39994;SDS011;25686;51.908;10.418;2024-01-30T11:19:23;9.02;;;4.65;;
39994;SDS011;25686;51.908;10.418;2024-01-30T11:21:25;7.55;;;4.57;;
39994;SDS011;25686;51.908;10.418;2024-01-30T11:23:29;8.23;;;4.43;;
39994;SDS011;25686;51.908;10.418;2024-01-30T11:25:30;8.05;;;4.45;;
39994;SDS011;25686;51.908;10.418;2024-01-30T11:27:32;7.75;;;4.68;;
39994;SDS011;25686;51.908;10.418;2024-01-30T11:29:33;8.35;;;4.65;;
39994;SDS011;25686;51.908;10.418;2024-01-30T11:31:35;9.35;;;4.78;;
39994;SDS011;25686;51.908;10.418;2024-01-30T11:33:37;12.23;;;5.55;;
39994;SDS011;25686;51.908;10.418;2024-01-30T11:35:39;7.60;;;4.70;;
39994;SDS011;25686;51.908;10.418;2024-01-30T11:37:40;9.25;;;4.70;;
39994;SDS011;25686;51.908;10.418;2024-01-30T11:39:42;7.75;;;5.10;;
39994;SDS011;25686;51.908;10.418;2024-01-30T11:41:44;7.88;;;5.03;;
39994;SDS011;25686;51.908;10.418;2024-01-30T11:43:52;6.18;;;4.40;;
39994;SDS011;25686;51.908;10.418;2024-01-30T11:45:53;10.05;;;5.07;;
39994;SDS011;25686;51.908;10.418;2024-01-30T11:47:54;7.88;;;4.80;;
39994;SDS011;25686;51.908;10.418;2024-01-30T11:49:56;8.13;;;4.72;;
39994;SDS011;25686;51.908;10.418;2024-01-30T11:51:57;9.00;;;4.97;;
39994;SDS011;25686;51.908;10.418;2024-01-30T11:53:58;6.85;;;4.35;;
39994;SDS011;25686;51.908;10.418;2024-01-30T11:55:59;9.25;;;5.20;;
39994;SDS011;25686;51.908;10.418;2024-01-30T11:58:00;7.80;;;4.68;;